createdAt,value
2023-01-11T00:01:08.510Z,20.85
2023-01-11T00:04:13.141Z,20.76
2023-01-11T00:07:16.875Z,20.96
2023-01-11T00:10:20.918Z,20.89
2023-01-11T00:16:30.008Z,20.96
2023-01-11T00:19:34.871Z,20.96
2023-01-11T00:22:38.861Z,20.86
2023-01-11T00:25:42.407Z,20.96
2023-01-11T00:28:45.459Z,20.96
2023-01-11T00:34:53.108Z,20.93
2023-01-11T00:41:20.740Z,20.88
2023-01-11T00:44:41.315Z,20.88
2023-01-11T00:48:00.864Z,20.88
2023-01-11T00:51:05.663Z,20.82
2023-01-11T00:54:09.161Z,20.46
2023-01-11T00:57:12.243Z,20.72
2023-01-11T01:00:18.946Z,20.91
2023-01-11T01:03:22.216Z,20.79
2023-01-11T01:06:27.075Z,20.91
2023-01-11T01:09:30.621Z,20.91
2023-01-11T01:12:52.034Z,20.63
2023-01-11T01:15:58.795Z,20.76
2023-01-11T01:19:02.466Z,20.76
2023-01-11T01:22:07.514Z,20.92
2023-01-11T01:25:11.513Z,20.91
2023-01-11T01:28:15.174Z,19.87
2023-01-11T01:31:18.995Z,20.90
2023-01-11T01:34:22.748Z,20.91
2023-01-11T01:37:28.446Z,20.92
2023-01-11T01:40:32.066Z,20.86
2023-01-11T01:43:51.057Z,20.91
2023-01-11T01:46:54.179Z,20.70
2023-01-11T01:49:59.175Z,20.90
2023-01-11T01:53:09.371Z,20.89
2023-01-11T01:56:16.440Z,20.74
2023-01-11T01:59:21.516Z,20.88
2023-01-11T02:02:27.550Z,20.84
2023-01-11T02:05:31.621Z,20.89
2023-01-11T02:08:40.578Z,20.81
2023-01-11T02:11:45.205Z,20.88
2023-01-11T02:14:49.268Z,20.89
2023-01-11T02:17:52.957Z,20.59
2023-01-11T02:21:10.766Z,20.67
2023-01-11T02:24:49.548Z,20.88
2023-01-11T02:28:07.796Z,20.79
2023-01-11T02:31:21.137Z,20.74
2023-01-11T02:34:37.935Z,20.80
2023-01-11T02:37:48.396Z,20.78
2023-01-11T02:40:58.902Z,20.89
2023-01-11T02:44:29.704Z,20.89
2023-01-11T02:47:41.220Z,20.82
2023-01-11T02:50:51.058Z,20.89
2023-01-11T02:53:59.749Z,20.88
2023-01-11T02:57:05.377Z,20.71
2023-01-11T03:00:13.424Z,20.77
2023-01-11T03:03:19.663Z,20.77
2023-01-11T03:06:25.736Z,20.87
2023-01-11T03:09:37.657Z,20.82
2023-01-11T03:12:56.342Z,20.77
2023-01-11T03:16:18.129Z,20.66
2023-01-11T03:19:34.239Z,20.82
2023-01-11T03:22:48.029Z,20.77
2023-01-11T03:26:00.731Z,20.89
2023-01-11T03:29:13.129Z,20.69
2023-01-11T03:32:26.085Z,20.87
2023-01-11T03:35:33.742Z,20.71
2023-01-11T03:38:42.024Z,20.87
2023-01-11T03:41:46.057Z,20.82
2023-01-11T03:44:55.891Z,20.63
2023-01-11T03:48:03.397Z,20.87
2023-01-11T03:51:10.831Z,20.75
2023-01-11T03:54:18.632Z,20.82
2023-01-11T03:57:27.657Z,20.84
2023-01-11T04:00:34.089Z,20.66
2023-01-11T04:03:39.072Z,20.87
2023-01-11T04:06:42.832Z,20.88
2023-01-11T04:09:46.289Z,20.83
2023-01-11T04:12:50.807Z,20.89
2023-01-11T04:15:56.408Z,20.90
2023-01-11T04:19:03.617Z,20.93
2023-01-11T04:22:07.091Z,20.96
2023-01-11T04:25:10.697Z,21.01
2023-01-11T04:28:13.959Z,21.10
2023-01-11T04:31:17.179Z,21.16
2023-01-11T04:34:22.091Z,21.21
2023-01-11T04:37:25.694Z,21.24
2023-01-11T04:40:28.745Z,21.08
2023-01-11T04:43:31.153Z,21.07
2023-01-11T04:46:34.428Z,21.11
2023-01-11T04:49:39.144Z,21.12
2023-01-11T04:52:42.670Z,21.19
2023-01-11T04:55:46.791Z,21.05
2023-01-11T04:58:52.145Z,20.84
2023-01-11T05:01:55.369Z,21.03
2023-01-11T05:04:59.824Z,21.05
2023-01-11T05:08:03.431Z,20.97
2023-01-11T05:11:08.693Z,21.31
2023-01-11T05:14:12.278Z,21.26
2023-01-11T05:17:16.180Z,21.01
2023-01-11T05:20:20.948Z,21.35
2023-01-11T05:23:24.300Z,21.27
2023-01-11T05:26:30.023Z,21.19
2023-01-11T05:29:33.133Z,21.10
2023-01-11T05:32:36.496Z,20.88
2023-01-11T05:35:41.180Z,20.98
2023-01-11T05:38:46.855Z,21.02
2023-01-11T05:41:54.690Z,20.88
2023-01-11T05:45:15.095Z,20.84
2023-01-11T05:48:18.513Z,20.81
2023-01-11T05:51:23.626Z,21.01
2023-01-11T05:54:26.941Z,20.80
2023-01-11T05:57:30.577Z,20.99
2023-01-11T06:00:33.964Z,21.00
2023-01-11T06:03:37.054Z,21.00
2023-01-11T06:06:42.946Z,20.99
2023-01-11T06:09:46.510Z,20.99
2023-01-11T06:13:13.433Z,20.99
2023-01-11T06:16:18.903Z,20.92
2023-01-11T06:19:22.007Z,20.99
2023-01-11T06:22:26.497Z,21.00
2023-01-11T06:25:30.571Z,20.99
2023-01-11T06:28:33.930Z,20.72
2023-01-11T06:31:37.150Z,20.81
2023-01-11T06:34:42.613Z,20.97
2023-01-11T06:37:47.288Z,21.01
2023-01-11T06:40:54.313Z,21.01
2023-01-11T06:43:57.780Z,20.89
2023-01-11T06:47:01.033Z,20.81
2023-01-11T06:50:04.453Z,20.87
2023-01-11T06:53:09.063Z,21.03
2023-01-11T06:56:16.159Z,21.02
2023-01-11T06:59:21.671Z,20.91
2023-01-11T07:02:25.049Z,21.09
2023-01-11T07:05:28.271Z,21.35
2023-01-11T07:08:35.262Z,21.37
2023-01-11T07:11:39.303Z,21.70
2023-01-11T07:14:42.446Z,21.40
2023-01-11T07:17:47.726Z,21.26
2023-01-11T07:20:52.119Z,21.18
2023-01-11T07:23:56.705Z,21.14
2023-01-11T07:27:01.927Z,21.06
2023-01-11T07:30:05.386Z,21.17
2023-01-11T07:33:10.677Z,20.92
2023-01-11T07:36:13.781Z,21.08
2023-01-11T07:39:18.266Z,21.15
2023-01-11T07:42:38.594Z,21.09
2023-01-11T07:45:46.363Z,20.96
2023-01-11T07:48:50.077Z,21.15
2023-01-11T07:51:53.175Z,21.19
2023-01-11T07:55:02.714Z,21.23
2023-01-11T07:58:06.115Z,21.24
2023-01-11T08:01:09.653Z,21.16
2023-01-11T08:04:14.418Z,21.21
2023-01-11T08:07:17.533Z,21.12
2023-01-11T08:10:22.167Z,21.18
2023-01-11T08:13:42.912Z,21.05
2023-01-11T08:16:46.253Z,21.18
2023-01-11T08:19:49.327Z,21.19
2023-01-11T08:22:52.383Z,21.20
2023-01-11T08:25:59.051Z,21.19
2023-01-11T08:29:02.146Z,21.18
2023-01-11T08:32:06.117Z,21.07
2023-01-11T08:35:10.241Z,21.18
2023-01-11T08:38:13.324Z,21.16
2023-01-11T08:41:17.711Z,21.25
2023-01-11T08:44:33.260Z,21.23
2023-01-11T08:47:37.057Z,21.23
2023-01-11T08:50:40.107Z,21.32
2023-01-11T08:53:43.789Z,21.37
2023-01-11T08:56:48.341Z,21.40
2023-01-11T08:59:51.346Z,21.23
2023-01-11T09:02:54.422Z,21.20
2023-01-11T09:05:57.924Z,21.31
2023-01-11T09:09:01.562Z,21.24
2023-01-11T09:12:06.952Z,21.40
2023-01-11T09:15:10.907Z,21.35
2023-01-11T09:18:16.478Z,21.20
2023-01-11T09:21:19.928Z,21.40
2023-01-11T09:24:23.024Z,21.41
2023-01-11T09:27:27.774Z,21.22
2023-01-11T09:30:31.373Z,21.18
2023-01-11T09:33:35.635Z,21.37
2023-01-11T09:36:40.289Z,21.21
2023-01-11T09:39:43.852Z,21.37
2023-01-11T09:42:53.814Z,21.23
2023-01-11T09:46:00.658Z,21.34
2023-01-11T09:49:04.959Z,21.35
2023-01-11T09:52:21.066Z,21.34
2023-01-11T09:55:33.095Z,21.31
2023-01-11T09:58:53.603Z,21.10
2023-01-11T10:02:05.515Z,21.31
2023-01-11T10:05:29.869Z,21.16
2023-01-11T10:18:40.323Z,21.29
2023-01-11T10:19:41.322Z,21.15
2023-01-11T10:22:48.551Z,21.06
2023-01-11T10:25:56.808Z,21.15
2023-01-11T10:29:22.459Z,21.09
2023-01-11T10:32:45.881Z,21.24
2023-01-11T10:36:10.623Z,21.02
2023-01-11T10:39:35.866Z,21.15
2023-01-11T10:42:46.220Z,21.29
2023-01-11T10:45:52.865Z,21.28
2023-01-11T10:49:13.840Z,21.28
2023-01-11T10:52:26.408Z,21.26
2023-01-11T10:55:39.863Z,21.30
2023-01-11T10:58:57.936Z,21.11
2023-01-11T11:02:11.602Z,21.33
2023-01-11T11:05:26.864Z,21.12
2023-01-11T11:08:40.429Z,21.34
2023-01-11T11:11:53.232Z,21.36
2023-01-11T11:15:03.894Z,21.19
2023-01-11T11:18:08.228Z,21.31
2023-01-11T11:21:22.176Z,21.21
2023-01-11T11:24:33.227Z,21.35
2023-01-11T11:27:43.351Z,21.19
2023-01-11T11:30:48.642Z,21.25
2023-01-11T11:33:52.320Z,21.36
2023-01-11T11:36:59.963Z,21.31
2023-01-11T11:40:04.008Z,20.99
2023-01-11T11:43:20.897Z,21.37
2023-01-11T11:46:27.977Z,21.36
2023-01-11T11:49:32.803Z,21.36
2023-01-11T11:52:37.352Z,21.09
2023-01-11T11:55:43.450Z,21.19
2023-01-11T11:58:47.198Z,21.36
2023-01-11T12:01:58.848Z,21.18
2023-01-11T12:05:08.832Z,21.35
2023-01-11T12:08:16.432Z,21.17
2023-01-11T12:11:21.656Z,21.35
2023-01-11T12:14:29.758Z,21.34
2023-01-11T12:17:32.933Z,21.15
2023-01-11T12:20:41.568Z,21.25
2023-01-11T12:23:46.179Z,21.13
2023-01-11T12:27:01.592Z,21.21
2023-01-11T12:30:24.418Z,21.26
2023-01-11T12:33:39.564Z,21.09
2023-01-11T12:36:53.857Z,21.31
2023-01-11T12:40:08.160Z,21.30
2023-01-11T12:43:33.107Z,21.22
2023-01-11T12:46:54.797Z,21.27
2023-01-11T12:50:06.512Z,21.02
2023-01-11T12:53:25.993Z,21.08
2023-01-11T12:56:51.283Z,21.27
2023-01-11T13:00:23.383Z,21.25
2023-01-11T13:03:50.436Z,21.26
2023-01-11T13:07:01.264Z,21.17
2023-01-11T13:10:37.989Z,21.24
2023-01-11T13:13:55.943Z,21.13
2023-01-11T13:17:19.611Z,21.11
2023-01-11T13:20:59.483Z,21.20
2023-01-11T13:24:09.657Z,21.23
2023-01-11T13:27:16.042Z,21.11
2023-01-11T13:30:24.420Z,21.23
2023-01-11T13:33:32.107Z,21.04
2023-01-11T13:36:43.866Z,21.22
2023-01-11T13:39:55.094Z,21.22
2023-01-11T13:43:04.924Z,21.05
2023-01-11T13:46:16.549Z,20.85
2023-01-11T13:49:36.035Z,21.20
2023-01-11T13:52:49.791Z,20.93
2023-01-11T13:55:59.963Z,21.20
2023-01-11T13:59:10.479Z,21.19
2023-01-11T14:02:22.648Z,21.14
2023-01-11T14:05:29.544Z,20.71
2023-01-11T14:09:12.736Z,20.86
2023-01-11T14:12:27.011Z,21.02
2023-01-11T14:15:38.002Z,21.07
2023-01-11T14:18:48.578Z,21.17
2023-01-11T14:22:05.896Z,21.15
2023-01-11T14:25:15.256Z,21.09
2023-01-11T14:28:33.736Z,21.19
2023-01-11T14:32:01.246Z,21.19
2023-01-11T14:35:32.795Z,21.16
2023-01-11T14:39:12.649Z,20.96
2023-01-11T14:42:36.205Z,20.98
2023-01-11T14:45:54.816Z,21.10
2023-01-11T14:49:10.919Z,20.77
2023-01-11T14:52:34.448Z,21.06
2023-01-11T14:55:46.687Z,21.05
2023-01-11T14:59:04.147Z,21.16
2023-01-11T15:02:28.594Z,21.15
2023-01-11T15:05:38.745Z,21.15
2023-01-11T15:08:52.287Z,20.90
2023-01-11T15:11:55.367Z,21.15
2023-01-11T15:15:04.270Z,21.14
2023-01-11T15:18:24.122Z,20.82
2023-01-11T15:21:28.682Z,20.97
2023-01-11T15:24:35.629Z,21.14
2023-01-11T15:27:40.318Z,20.99
2023-01-11T15:30:54.409Z,21.04
2023-01-11T15:34:03.487Z,21.05
2023-01-11T15:37:46.126Z,21.09
2023-01-11T15:40:54.730Z,20.91
2023-01-11T15:44:19.923Z,21.09
2023-01-11T15:47:47.822Z,20.70
2023-01-11T15:51:09.924Z,20.92
2023-01-11T15:54:46.259Z,21.09
2023-01-11T15:58:15.100Z,21.07
2023-01-11T16:01:28.593Z,21.08
2023-01-11T16:04:35.395Z,20.91
2023-01-11T16:07:43.424Z,21.01
2023-01-11T16:11:03.435Z,21.07
2023-01-11T16:14:52.694Z,21.06
2023-01-11T16:17:59.143Z,21.06
2023-01-11T16:21:06.113Z,20.84
2023-01-11T16:24:14.192Z,21.06
2023-01-11T16:27:24.340Z,21.00
2023-01-11T16:30:31.217Z,20.92
2023-01-11T16:33:36.001Z,20.90
2023-01-11T16:36:41.824Z,21.01
2023-01-11T16:39:45.071Z,20.97
2023-01-11T16:42:52.265Z,20.02
2023-01-11T16:45:58.421Z,19.25
2023-01-11T16:49:14.244Z,19.02
2023-01-11T16:52:42.952Z,19.77
2023-01-11T16:55:55.804Z,20.44
2023-01-11T16:59:07.981Z,20.79
2023-01-11T17:02:28.881Z,21.00
2023-01-11T17:05:32.040Z,21.04
2023-01-11T17:08:36.992Z,21.14
2023-01-11T17:11:45.577Z,21.26
2023-01-11T17:14:59.850Z,21.23
2023-01-11T17:18:05.922Z,21.31
2023-01-11T17:21:19.236Z,21.41
2023-01-11T17:24:26.277Z,21.46
2023-01-11T17:27:33.266Z,21.47
2023-01-11T17:30:38.575Z,21.33
2023-01-11T17:33:43.171Z,21.42
2023-01-11T17:36:47.611Z,20.13
2023-01-11T17:39:53.474Z,21.51
2023-01-11T17:43:20.506Z,21.52
2023-01-11T17:46:26.675Z,21.51
2023-01-11T17:49:33.712Z,21.33
2023-01-11T17:52:43.729Z,21.33
2023-01-11T17:55:55.635Z,21.32
2023-01-11T17:59:17.219Z,21.57
2023-01-11T18:02:21.363Z,21.67
2023-01-11T18:05:29.767Z,21.33
2023-01-11T18:08:33.610Z,21.64
2023-01-11T18:11:42.919Z,21.68
2023-01-11T18:14:53.194Z,21.67
2023-01-11T18:17:58.063Z,21.42
2023-01-11T18:21:05.247Z,21.63
2023-01-11T18:24:43.651Z,21.43
2023-01-11T18:27:47.141Z,21.56
2023-01-11T18:30:54.393Z,21.47
2023-01-11T18:33:57.936Z,21.40
2023-01-11T18:37:06.487Z,21.31
2023-01-11T18:40:13.903Z,21.35
2023-01-11T18:43:19.109Z,21.39
2023-01-11T18:46:23.421Z,21.39
2023-01-11T18:49:27.992Z,21.37
2023-01-11T18:52:34.061Z,21.42
2023-01-11T18:55:37.652Z,21.45
2023-01-11T18:58:40.834Z,21.35
2023-01-11T19:01:58.998Z,21.45
2023-01-11T19:05:13.835Z,21.44
2023-01-11T19:08:19.605Z,21.44
2023-01-11T19:11:26.878Z,21.44
2023-01-11T19:14:30.948Z,21.35
2023-01-11T19:17:34.621Z,21.42
2023-01-11T19:20:38.786Z,21.36
2023-01-11T19:23:45.494Z,21.36
2023-01-11T19:26:50.230Z,21.30
2023-01-11T19:29:54.215Z,21.22
2023-01-11T19:32:58.794Z,21.36
2023-01-11T19:36:07.690Z,21.35
2023-01-11T19:39:15.647Z,21.27
2023-01-11T19:42:20.708Z,21.20
2023-01-11T19:45:24.988Z,21.04
2023-01-11T19:48:28.227Z,21.18
2023-01-11T19:51:31.731Z,21.34
2023-01-11T19:54:36.535Z,21.24
2023-01-11T19:57:42.690Z,21.34
2023-01-11T20:00:49.029Z,21.14
2023-01-11T20:03:53.164Z,21.33
2023-01-11T20:06:56.731Z,21.34
2023-01-11T20:10:01.245Z,21.33
2023-01-11T20:13:04.450Z,21.15
2023-01-11T20:16:09.931Z,21.32
2023-01-11T20:19:17.466Z,21.17
2023-01-11T20:22:21.516Z,21.14
2023-01-11T20:25:27.370Z,21.22
2023-01-11T20:28:31.774Z,21.33
2023-01-11T20:31:35.859Z,21.32
2023-01-11T20:34:39.238Z,21.33
2023-01-11T20:37:42.838Z,21.31
2023-01-11T20:40:47.892Z,21.24
2023-01-11T20:43:52.015Z,21.08
2023-01-11T20:46:58.147Z,21.27
2023-01-11T20:50:01.813Z,21.32
2023-01-11T20:53:05.142Z,21.01
2023-01-11T20:56:11.138Z,21.15
2023-01-11T20:59:16.570Z,21.27
2023-01-11T21:02:19.914Z,21.01
2023-01-11T21:05:23.642Z,21.21
2023-01-11T21:08:27.488Z,21.19
2023-01-11T21:11:33.424Z,21.17
2023-01-11T21:14:37.314Z,21.15
2023-01-11T21:17:41.050Z,21.13
2023-01-11T21:20:48.371Z,21.07
2023-01-11T21:23:55.666Z,20.93
2023-01-11T21:27:00.379Z,21.10
2023-01-11T21:30:04.019Z,21.07
2023-01-11T21:33:07.409Z,21.07
2023-01-11T21:36:13.620Z,20.80
2023-01-11T21:39:18.129Z,21.06
2023-01-11T21:42:25.008Z,21.05
2023-01-11T21:45:28.745Z,20.98
2023-01-11T21:48:32.051Z,21.04
2023-01-11T21:51:35.488Z,20.97
2023-01-11T21:54:38.538Z,20.78
2023-01-11T21:57:44.360Z,20.73
2023-01-11T22:00:47.462Z,21.01
2023-01-11T22:03:51.550Z,20.74
2023-01-11T22:06:59.568Z,20.92
2023-01-11T22:10:05.303Z,21.01
2023-01-11T22:13:15.092Z,21.02
2023-01-11T22:20:35.700Z,20.96
2023-01-11T22:23:39.264Z,20.99
2023-01-11T22:26:42.865Z,20.98
2023-01-11T22:29:48.512Z,20.80
2023-01-11T22:32:52.236Z,20.87
2023-01-11T22:35:55.982Z,20.89
2023-01-11T22:38:59.491Z,20.72
2023-01-11T22:42:02.857Z,20.68
2023-01-11T22:48:12.239Z,20.60
2023-01-11T22:51:17.485Z,20.87
2023-01-11T22:54:21.110Z,20.92
2023-01-11T22:57:24.447Z,20.82
2023-01-11T23:03:47.332Z,20.86
2023-01-11T23:06:50.403Z,20.91
2023-01-11T23:09:53.462Z,20.92
2023-01-11T23:13:13.799Z,20.74
2023-01-11T23:16:18.637Z,20.92
2023-01-11T23:19:22.140Z,20.92
2023-01-11T23:22:25.370Z,20.85
2023-01-11T23:25:28.737Z,20.92
2023-01-11T23:28:33.070Z,20.86
2023-01-11T23:31:38.095Z,20.85
2023-01-11T23:34:41.513Z,20.75
2023-01-11T23:37:44.647Z,20.75
2023-01-11T23:41:01.690Z,20.90
2023-01-11T23:44:07.212Z,20.85
2023-01-11T23:47:29.762Z,20.91
2023-01-11T23:50:33.709Z,20.90
2023-01-11T23:53:37.257Z,20.78
2023-01-11T23:56:41.034Z,20.80
2023-01-11T23:59:45.649Z,20.73
